Time;durP1;ratioP1;P1;durP2;ratioP2;P2;SDS_P1;SDS_P2;PMS_P1;PMS_P2;Temp;Humidity;BMP_temperature;BMP_pressure;BME280_temperature;BME280_humidity;BME280_pressure;Samples;Min_cycle;Max_cycle;Signal;HPM_P1;HPM_P2
2023/12/01 00:01:11;;;;;;;7.78;6.60;;;23.00;73.60;;;;;;6207431;28;90152;-60
2023/12/01 00:04:13;;;;;;;8.02;6.88;;;23.00;73.70;;;;;;6236015;28;89162;-60
2023/12/01 00:07:15;;;;;;;7.22;6.53;;;23.10;73.60;;;;;;6219784;28;89085;-60
2023/12/01 00:10:17;;;;;;;7.15;6.45;;;23.00;73.50;;;;;;6213838;28;89090;-60
2023/12/01 00:13:19;;;;;;;6.78;6.18;;;23.10;73.70;;;;;;6225394;28;88994;-60
2023/12/01 00:16:22;;;;;;;7.05;6.35;;;23.10;73.80;;;;;;6218466;28;89208;-60
2023/12/01 00:19:24;;;;;;;7.93;6.65;;;23.00;73.70;;;;;;6223889;28;89092;-60
2023/12/01 00:22:26;;;;;;;8.23;7.28;;;23.00;73.60;;;;;;6224165;28;88470;-60
2023/12/01 00:25:28;;;;;;;7.15;6.50;;;23.10;73.70;;;;;;6209901;28;89372;-60
2023/12/01 00:28:30;;;;;;;7.38;6.68;;;23.00;73.70;;;;;;6205658;28;89098;-59
2023/12/01 00:31:33;;;;;;;7.07;6.38;;;23.00;73.70;;;;;;6204537;28;89958;-60
2023/12/01 00:34:35;;;;;;;8.05;7.05;;;23.00;73.70;;;;;;6218316;28;88149;-60
2023/12/01 00:37:37;;;;;;;7.82;6.68;;;23.10;73.80;;;;;;6206790;28;89740;-59
2023/12/01 00:40:39;;;;;;;7.32;6.63;;;23.00;73.80;;;;;;6213370;28;89961;-60
2023/12/01 00:43:41;;;;;;;7.78;6.97;;;23.00;73.70;;;;;;6224284;28;89081;-60
2023/12/01 00:46:44;;;;;;;7.82;7.05;;;23.00;73.70;;;;;;6213294;28;89040;-60
2023/12/01 00:49:46;;;;;;;9.70;7.57;;;23.00;73.70;;;;;;6219287;28;89037;-60
2023/12/01 00:52:49;;;;;;;8.23;7.43;;;23.00;73.70;;;;;;6215454;28;88369;-60
2023/12/01 00:55:51;;;;;;;8.40;7.47;;;23.00;73.60;;;;;;6218807;28;88988;-59
2023/12/01 00:58:52;;;;;;;7.72;7.03;;;23.00;73.60;;;;;;6227413;28;87977;-60
2023/12/01 01:01:56;;;;;;;7.95;7.20;;;22.90;73.50;;;;;;6208303;28;89982;-60
2023/12/01 01:04:58;;;;;;;8.15;7.45;;;22.90;73.60;;;;;;6206078;28;89257;-60
2023/12/01 01:08:00;;;;;;;8.57;7.68;;;22.90;73.50;;;;;;6219817;28;89053;-60
2023/12/01 01:11:02;;;;;;;7.68;6.97;;;22.90;73.50;;;;;;6224497;28;89084;-60
2023/12/01 01:14:04;;;;;;;7.78;7.07;;;22.80;73.50;;;;;;6222886;28;89086;-60
2023/12/01 01:17:07;;;;;;;8.07;7.28;;;22.80;73.50;;;;;;6213728;28;89156;-60
2023/12/01 01:20:10;;;;;;;8.07;7.28;;;22.80;73.50;;;;;;6216127;28;89026;-60
2023/12/01 01:23:14;;;;;;;7.97;7.28;;;22.80;73.40;;;;;;6220513;28;88294;-60
2023/12/01 01:26:17;;;;;;;8.25;7.47;;;22.80;73.40;;;;;;6212702;28;89155;-60
2023/12/01 01:29:19;;;;;;;8.20;7.28;;;22.80;73.50;;;;;;6213439;28;89013;-60
2023/12/01 01:32:23;;;;;;;7.88;7.07;;;22.80;73.50;;;;;;6220449;28;89906;-60
2023/12/01 01:35:25;;;;;;;8.75;7.78;;;22.80;73.50;;;;;;6233482;28;89073;-60
2023/12/01 01:38:27;;;;;;;7.75;7.00;;;22.80;73.50;;;;;;6215385;28;87959;-60
2023/12/01 01:41:29;;;;;;;7.70;7.00;;;22.70;73.40;;;;;;6231251;28;88983;-60
2023/12/01 01:44:31;;;;;;;9.40;8.05;;;22.70;73.30;;;;;;6218322;28;88979;-60
2023/12/01 01:47:34;;;;;;;8.38;7.53;;;22.70;73.40;;;;;;6232745;28;88694;-60
2023/12/01 01:50:36;;;;;;;8.18;7.38;;;22.70;73.40;;;;;;6210455;28;89123;-60
2023/12/01 01:53:41;;;;;;;7.85;7.15;;;22.70;73.30;;;;;;6228374;28;88525;-60
2023/12/01 01:56:43;;;;;;;8.20;7.50;;;22.70;73.30;;;;;;6222993;28;89060;-60
2023/12/01 01:59:45;;;;;;;13.20;8.80;;;22.60;73.30;;;;;;6237288;28;88040;-60
2023/12/01 02:02:49;;;;;;;11.05;8.43;;;22.60;73.30;;;;;;6232873;28;89988;-60
2023/12/01 02:05:51;;;;;;;7.78;7.07;;;22.60;73.30;;;;;;6232537;28;89118;-60
2023/12/01 02:08:53;;;;;;;8.05;7.35;;;22.60;73.30;;;;;;6225849;28;89926;-60
2023/12/01 02:11:55;;;;;;;10.27;8.35;;;22.60;73.30;;;;;;6229128;28;88999;-59
2023/12/01 02:14:57;;;;;;;7.93;7.22;;;22.60;73.30;;;;;;6231560;28;87949;-60
2023/12/01 02:18:01;;;;;;;8.20;7.40;;;22.60;73.30;;;;;;6213419;28;89053;-60
2023/12/01 02:21:03;;;;;;;8.52;7.70;;;22.60;73.30;;;;;;6235817;28;88839;-60
2023/12/01 02:24:08;;;;;;;8.75;7.95;;;22.60;73.20;;;;;;6234188;28;88397;-60
2023/12/01 02:27:10;;;;;;;10.15;8.13;;;22.60;73.20;;;;;;6223637;28;89166;-60
2023/12/01 02:30:13;;;;;;;8.20;7.50;;;22.60;73.20;;;;;;6208516;28;89071;-60
2023/12/01 02:33:16;;;;;;;7.93;7.13;;;22.60;73.10;;;;;;6227171;28;90104;-60
2023/12/01 02:36:19;;;;;;;8.10;7.32;;;22.60;73.00;;;;;;6240797;28;88277;-60
2023/12/01 02:39:22;;;;;;;8.30;7.60;;;22.60;73.10;;;;;;6240441;28;89073;-60
2023/12/01 02:42:24;;;;;;;8.20;7.47;;;22.60;73.00;;;;;;6242422;28;89126;-60
2023/12/01 02:45:28;;;;;;;7.90;7.20;;;22.60;73.00;;;;;;6206793;28;87095;-60
2023/12/01 02:48:30;;;;;;;10.25;8.48;;;22.60;73.00;;;;;;6220186;28;90618;-60
2023/12/01 02:51:32;;;;;;;9.23;8.18;;;22.60;73.00;;;;;;6207374;28;89050;-60
2023/12/01 02:54:35;;;;;;;8.38;7.57;;;22.60;73.00;;;;;;6233422;28;88430;-60
2023/12/01 02:57:39;;;;;;;8.20;7.50;;;22.60;72.90;;;;;;6222604;28;89109;-60
2023/12/01 03:00:42;;;;;;;8.77;7.97;;;22.60;72.90;;;;;;6224130;28;88736;-60
2023/12/01 03:03:44;;;;;;;8.82;7.93;;;22.60;72.90;;;;;;6208017;28;90450;-60
2023/12/01 03:06:46;;;;;;;8.73;7.93;;;22.60;73.30;;;;;;6228904;28;88026;-60
2023/12/01 03:09:49;;;;;;;11.68;8.68;;;22.60;72.80;;;;;;6229704;28;89001;-60
2023/12/01 03:12:51;;;;;;;9.60;8.35;;;22.60;72.80;;;;;;6223693;28;89087;-60
2023/12/01 03:15:53;;;;;;;8.98;8.07;;;22.60;72.80;;;;;;6219329;28;89073;-60
2023/12/01 03:18:55;;;;;;;9.32;8.48;;;22.60;72.80;;;;;;6220109;28;87982;-60
2023/12/01 03:21:57;;;;;;;9.85;8.85;;;22.60;72.80;;;;;;6228710;28;89166;-60
2023/12/01 03:25:00;;;;;;;8.43;7.63;;;22.60;72.80;;;;;;6232031;28;87101;-60
2023/12/01 03:28:02;;;;;;;9.43;8.52;;;22.60;72.80;;;;;;6223172;28;89423;-60
2023/12/01 03:31:04;;;;;;;9.15;8.32;;;22.50;72.70;;;;;;6224028;28;89177;-60
2023/12/01 03:34:07;;;;;;;9.60;8.70;;;22.60;72.80;;;;;;6235503;28;90085;-60
2023/12/01 03:37:08;;;;;;;9.98;8.98;;;22.50;72.70;;;;;;6208439;28;89108;-60
2023/12/01 03:40:13;;;;;;;10.68;8.90;;;22.50;72.70;;;;;;6218739;28;89119;-59
2023/12/01 03:43:15;;;;;;;9.75;8.85;;;22.50;72.70;;;;;;6225574;28;87867;-60
2023/12/01 03:46:17;;;;;;;9.40;8.50;;;22.50;72.70;;;;;;6215834;28;89012;-60
2023/12/01 03:49:19;;;;;;;9.85;8.85;;;22.50;72.80;;;;;;6223497;28;89422;-60
2023/12/01 03:52:21;;;;;;;9.85;8.93;;;22.40;72.70;;;;;;6214988;28;89113;-60
2023/12/01 03:55:24;;;;;;;10.05;9.05;;;22.40;72.70;;;;;;6212651;28;87231;-60
2023/12/01 03:58:26;;;;;;;9.40;8.60;;;22.40;72.80;;;;;;6213444;28;89252;-60
2023/12/01 04:01:28;;;;;;;10.27;9.38;;;22.40;72.80;;;;;;6215170;28;88993;-60
2023/12/01 04:04:32;;;;;;;11.23;9.48;;;22.40;72.80;;;;;;6214077;28;90116;-60
2023/12/01 04:07:34;;;;;;;9.48;8.57;;;22.40;72.80;;;;;;6216949;28;89328;-60
2023/12/01 04:10:37;;;;;;;9.40;8.50;;;22.30;72.80;;;;;;6212927;28;89103;-60
2023/12/01 04:13:41;;;;;;;10.32;9.32;;;22.30;72.80;;;;;;6228614;28;89091;-59
2023/12/01 04:16:42;;;;;;;13.18;10.30;;;22.30;72.80;;;;;;6228849;28;89095;-60
2023/12/01 04:19:44;;;;;;;9.68;8.77;;;22.40;72.90;;;;;;6228667;28;88288;-60
2023/12/01 04:22:47;;;;;;;10.02;9.10;;;22.40;72.80;;;;;;6218155;28;89038;-60
2023/12/01 04:25:50;;;;;;;10.13;9.23;;;22.30;72.80;;;;;;6218860;28;88398;-60
2023/12/01 04:28:52;;;;;;;10.70;9.60;;;22.30;72.90;;;;;;6217724;28;89071;-61
2023/12/01 04:31:54;;;;;;;9.88;8.98;;;22.30;72.90;;;;;;6214859;28;89005;-60
2023/12/01 04:34:56;;;;;;;11.18;9.50;;;22.30;72.90;;;;;;6235427;28;90023;-60
2023/12/01 04:38:00;;;;;;;10.15;9.20;;;22.30;73.00;;;;;;6232107;28;89140;-60
2023/12/01 04:41:09;;;;;;;10.18;9.20;;;22.30;73.00;;;;;;6218806;28;89013;-60
2023/12/01 04:44:11;;;;;;;9.95;8.98;;;22.20;73.00;;;;;;6220559;28;89014;-60
2023/12/01 04:47:13;;;;;;;9.82;8.82;;;22.20;73.00;;;;;;6227112;28;89140;-60
2023/12/01 04:50:16;;;;;;;11.05;9.45;;;22.30;72.90;;;;;;6228009;28;89312;-60
2023/12/01 04:53:18;;;;;;;10.07;9.07;;;22.20;72.80;;;;;;6233359;28;89113;-60
2023/12/01 04:56:21;;;;;;;10.20;9.20;;;22.30;72.80;;;;;;6211079;28;88332;-60
2023/12/01 04:59:23;;;;;;;9.70;8.70;;;22.30;72.80;;;;;;6220404;28;89190;-61
2023/12/01 05:02:25;;;;;;;9.70;8.80;;;22.30;72.80;;;;;;6220013;28;87801;-60
2023/12/01 05:05:28;;;;;;;9.80;8.90;;;22.20;72.80;;;;;;6211352;28;90122;-61
2023/12/01 05:08:30;;;;;;;9.38;8.50;;;22.30;72.80;;;;;;6209294;28;89070;-61
2023/12/01 05:11:33;;;;;;;10.65;9.55;;;22.30;72.70;;;;;;6215270;28;89105;-60
2023/12/01 05:14:35;;;;;;;9.57;8.68;;;22.30;72.70;;;;;;6221129;28;89212;-60
2023/12/01 05:17:37;;;;;;;10.38;9.00;;;22.30;72.60;;;;;;6232103;28;89060;-60
2023/12/01 05:20:39;;;;;;;9.43;8.63;;;22.30;72.60;;;;;;6244280;28;89264;-60
2023/12/01 05:23:41;;;;;;;9.20;8.30;;;22.40;72.60;;;;;;6230299;28;89050;-61
2023/12/01 05:26:45;;;;;;;9.15;8.35;;;22.40;72.50;;;;;;6215266;28;88389;-61
2023/12/01 05:29:48;;;;;;;9.50;8.60;;;22.40;72.50;;;;;;6219137;28;89115;-61
2023/12/01 05:32:51;;;;;;;8.85;8.05;;;22.50;72.50;;;;;;6221439;28;89624;-60
2023/12/01 05:35:53;;;;;;;8.98;8.07;;;22.40;72.30;;;;;;6219776;28;89164;-60
2023/12/01 05:38:55;;;;;;;9.25;8.35;;;22.50;72.50;;;;;;6229099;28;89056;-60
2023/12/01 05:41:58;;;;;;;9.43;8.52;;;22.50;72.50;;;;;;6223693;28;87989;-61
2023/12/01 05:45:00;;;;;;;9.88;8.98;;;22.40;72.50;;;;;;6213376;28;89072;-60
2023/12/01 05:48:06;;;;;;;8.60;7.80;;;22.40;72.50;;;;;;6226231;28;89474;-60
2023/12/01 05:51:08;;;;;;;9.02;8.23;;;22.40;72.50;;;;;;6220006;28;90285;-61
2023/12/01 05:54:10;;;;;;;9.05;8.15;;;22.40;72.50;;;;;;6225338;28;87957;-61
2023/12/01 05:57:14;;;;;;;9.55;8.55;;;22.40;72.50;;;;;;6231701;28;88317;-61
2023/12/01 06:00:17;;;;;;;9.35;8.35;;;22.40;72.80;;;;;;6234355;28;89044;-60
2023/12/01 06:03:20;;;;;;;8.45;7.65;;;22.40;72.70;;;;;;6233227;28;89287;-60
2023/12/01 06:06:22;;;;;;;9.00;8.15;;;22.40;72.70;;;;;;6216737;28;89863;-60
2023/12/01 06:09:24;;;;;;;9.20;8.30;;;22.30;72.70;;;;;;6219404;28;89118;-60
2023/12/01 06:12:27;;;;;;;8.38;7.60;;;22.30;72.70;;;;;;6217330;28;89113;-60
2023/12/01 06:15:30;;;;;;;8.63;7.82;;;22.30;72.70;;;;;;6223712;28;88984;-60
2023/12/01 06:18:34;;;;;;;9.45;8.55;;;22.30;72.70;;;;;;6225474;28;89429;-60
2023/12/01 06:21:36;;;;;;;10.75;8.65;;;22.30;72.70;;;;;;6231336;28;89444;-60
2023/12/01 06:24:38;;;;;;;8.82;7.97;;;22.30;72.70;;;;;;6231001;28;89128;-60
2023/12/01 06:27:41;;;;;;;8.38;7.57;;;22.40;72.70;;;;;;6221562;28;88344;-61
2023/12/01 06:30:43;;;;;;;8.18;7.40;;;22.40;72.70;;;;;;6214244;28;89104;-60
2023/12/01 06:33:45;;;;;;;8.35;7.65;;;22.40;72.70;;;;;;6232557;28;87936;-60
2023/12/01 06:36:47;;;;;;;8.45;7.65;;;22.40;72.70;;;;;;6220528;28;90029;-61
2023/12/01 06:39:49;;;;;;;9.15;8.02;;;22.40;72.70;;;;;;6214978;28;89147;-60
2023/12/01 06:42:54;;;;;;;8.23;7.43;;;22.40;72.60;;;;;;6234684;28;89094;-61
2023/12/01 06:45:56;;;;;;;8.52;7.72;;;22.50;72.60;;;;;;6214236;28;89600;-60
2023/12/01 06:48:58;;;;;;;8.02;7.22;;;22.40;72.50;;;;;;6206638;28;89043;-60
2023/12/01 06:52:02;;;;;;;8.30;7.55;;;22.50;72.50;;;;;;6225247;28;89146;-60
2023/12/01 06:55:05;;;;;;;7.70;7.00;;;22.50;72.50;;;;;;6228906;28;88012;-60
2023/12/01 06:58:09;;;;;;;8.07;7.38;;;22.50;72.50;;;;;;6233971;28;88467;-60
2023/12/01 07:01:18;;;;;;;8.20;7.40;;;22.50;72.50;;;;;;6225999;28;89074;-61
2023/12/01 07:04:20;;;;;;;9.80;7.55;;;22.50;72.60;;;;;;6229894;28;88819;-61
2023/12/01 07:07:22;;;;;;;7.80;7.05;;;22.50;72.50;;;;;;6238282;28;90050;-61
2023/12/01 07:10:24;;;;;;;8.10;7.30;;;22.50;72.50;;;;;;6220745;28;89082;-61
2023/12/01 07:13:29;;;;;;;9.70;7.85;;;22.50;72.50;;;;;;6222263;28;89115;-61
2023/12/01 07:16:31;;;;;;;7.57;6.85;;;22.50;72.40;;;;;;6211723;28;89177;-60
2023/12/01 07:19:36;;;;;;;8.30;7.40;;;22.50;72.40;;;;;;6219486;28;88937;-60
2023/12/01 07:22:38;;;;;;;7.80;7.10;;;22.50;72.30;;;;;;6216209;28;87972;-61
2023/12/01 07:25:40;;;;;;;7.70;6.95;;;22.50;72.30;;;;;;6227605;28;89087;-60
2023/12/01 07:28:43;;;;;;;8.00;7.18;;;22.50;73.20;;;;;;6219451;28;88426;-61
2023/12/01 07:31:46;;;;;;;7.63;6.93;;;22.60;72.40;;;;;;6251922;28;89090;-60
2023/12/01 07:34:48;;;;;;;7.40;6.70;;;22.60;72.40;;;;;;6215504;28;89027;-61
2023/12/01 07:37:52;;;;;;;7.60;6.90;;;22.60;72.40;;;;;;6220697;28;90027;-60
2023/12/01 07:40:54;;;;;;;8.00;7.13;;;22.60;72.40;;;;;;6222213;28;89196;-61
2023/12/01 07:43:57;;;;;;;6.93;6.32;;;22.60;72.30;;;;;;6242549;28;89168;-60
2023/12/01 07:47:01;;;;;;;7.72;7.03;;;22.60;72.40;;;;;;6226752;28;89143;-61
2023/12/01 07:50:04;;;;;;;7.22;6.53;;;22.60;72.30;;;;;;6213622;28;89085;-61
2023/12/01 07:53:08;;;;;;;7.53;6.82;;;22.60;72.30;;;;;;6208045;28;89054;-60
2023/12/01 07:56:11;;;;;;;7.13;6.50;;;22.60;72.30;;;;;;6213161;28;89023;-61
2023/12/01 07:59:15;;;;;;;6.97;6.35;;;22.60;72.30;;;;;;6215166;28;88336;-60
2023/12/01 08:02:17;;;;;;;7.90;7.10;;;22.60;72.30;;;;;;6213916;28;89114;-61
2023/12/01 08:05:19;;;;;;;7.38;6.68;;;22.60;72.30;;;;;;6226096;28;89443;-61
2023/12/01 08:08:21;;;;;;;7.40;6.70;;;22.60;72.20;;;;;;6209047;28;90156;-61
2023/12/01 08:11:23;;;;;;;7.57;6.88;;;22.60;72.20;;;;;;6220029;28;89528;-60
2023/12/01 08:14:26;;;;;;;6.72;6.13;;;22.60;72.20;;;;;;6219505;28;89237;-59
2023/12/01 08:17:30;;;;;;;7.40;6.53;;;22.60;72.20;;;;;;6205734;28;87916;-61
2023/12/01 08:20:32;;;;;;;6.70;6.10;;;22.60;72.20;;;;;;6206057;28;89121;-61
2023/12/01 08:23:34;;;;;;;7.13;6.50;;;22.70;72.30;;;;;;6221708;28;89423;-61
2023/12/01 08:26:37;;;;;;;6.60;6.00;;;22.60;72.20;;;;;;6227993;28;89272;-59
2023/12/01 08:29:40;;;;;;;8.50;6.97;;;22.70;72.20;;;;;;6237580;28;88329;-58
2023/12/01 08:32:42;;;;;;;6.75;6.15;;;22.70;72.20;;;;;;6253398;28;89215;-58
2023/12/01 08:35:44;;;;;;;6.45;5.85;;;22.70;72.20;;;;;;6229816;28;89074;-59
2023/12/01 08:38:46;;;;;;;6.80;6.10;;;22.70;72.10;;;;;;6225566;28;89981;-58
2023/12/01 08:41:53;;;;;;;6.78;6.18;;;22.70;73.00;;;;;;6221645;28;89783;-59
2023/12/01 08:44:56;;;;;;;6.63;6.03;;;22.70;72.10;;;;;;6217919;28;89326;-59
2023/12/01 08:47:58;;;;;;;6.30;5.70;;;22.70;72.00;;;;;;6216726;28;89181;-59
2023/12/01 08:51:00;;;;;;;6.40;5.80;;;22.70;72.00;;;;;;6217312;28;89045;-59
2023/12/01 08:54:02;;;;;;;7.38;6.50;;;22.70;72.00;;;;;;6216532;28;89082;-60
2023/12/01 08:57:05;;;;;;;7.18;6.50;;;22.70;72.00;;;;;;6234987;28;89101;-60
2023/12/01 09:00:14;;;;;;;6.65;6.05;;;22.70;72.90;;;;;;6226256;28;88317;-59
2023/12/01 09:03:16;;;;;;;6.43;5.82;;;22.70;72.00;;;;;;6208535;28;89238;-59
2023/12/01 09:06:18;;;;;;;7.90;6.30;;;22.70;72.00;;;;;;6238756;28;89016;-59
2023/12/01 09:09:20;;;;;;;6.60;6.00;;;22.80;72.00;;;;;;6220785;28;90178;-59
2023/12/01 09:12:22;;;;;;;6.63;5.90;;;22.80;72.00;;;;;;6217861;28;89037;-60
2023/12/01 09:15:25;;;;;;;6.75;6.15;;;22.80;72.00;;;;;;6232460;28;89128;-60
2023/12/01 09:18:28;;;;;;;7.35;6.47;;;22.80;72.00;;;;;;6217780;28;89105;-59
2023/12/01 09:21:31;;;;;;;6.85;6.15;;;22.80;72.00;;;;;;6211106;28;89146;-60
2023/12/01 09:24:32;;;;;;;6.30;5.68;;;22.80;71.90;;;;;;6229705;28;89142;-60
2023/12/01 09:27:34;;;;;;;6.50;5.90;;;22.80;71.90;;;;;;6208028;28;89410;-59
2023/12/01 09:30:38;;;;;;;7.95;6.28;;;22.80;71.90;;;;;;6216264;28;88774;-60
2023/12/01 09:33:40;;;;;;;6.97;6.20;;;22.70;71.80;;;;;;6229460;28;89045;-60
2023/12/01 09:36:43;;;;;;;6.25;5.65;;;22.80;71.90;;;;;;6208741;28;89058;-59
2023/12/01 09:39:45;;;;;;;5.97;5.43;;;22.80;71.90;;;;;;6214321;28;90073;-60
2023/12/01 09:42:49;;;;;;;6.25;5.65;;;22.80;71.90;;;;;;6215526;28;89385;-60
2023/12/01 09:45:53;;;;;;;6.10;5.50;;;22.80;71.80;;;;;;6229391;28;89211;-60
2023/12/01 09:48:55;;;;;;;5.72;5.22;;;22.80;71.80;;;;;;6231112;28;88021;-60
2023/12/01 09:51:58;;;;;;;5.80;5.25;;;22.80;71.80;;;;;;6240294;28;89136;-60
2023/12/01 09:55:00;;;;;;;6.03;5.40;;;22.80;71.80;;;;;;6230315;28;89252;-59
2023/12/01 09:58:02;;;;;;;6.50;5.88;;;22.80;71.80;;;;;;6233055;28;89102;-60
2023/12/01 10:01:06;;;;;;;6.82;5.63;;;22.80;71.80;;;;;;6239235;28;87206;-59
2023/12/01 10:04:08;;;;;;;6.10;5.50;;;22.80;71.90;;;;;;6220145;28;89020;-59
2023/12/01 10:07:12;;;;;;;6.10;5.50;;;22.80;71.80;;;;;;6209752;28;89292;-60
2023/12/01 10:10:22;;;;;;;6.38;5.75;;;22.80;71.80;;;;;;6200090;28;90140;-60
2023/12/01 10:13:24;;;;;;;5.43;4.93;;;22.80;71.80;;;;;;6206569;28;87985;-60
2023/12/01 10:16:27;;;;;;;5.78;5.28;;;22.80;71.80;;;;;;6206655;28;89114;-60
2023/12/01 10:19:32;;;;;;;5.80;5.28;;;22.80;71.90;;;;;;6250832;28;89298;-59
2023/12/01 10:22:34;;;;;;;5.75;5.20;;;22.80;71.80;;;;;;6225716;28;89420;-60
2023/12/01 10:25:39;;;;;;;5.60;5.10;;;22.80;71.80;;;;;;6227354;28;89069;-60
2023/12/01 10:28:44;;;;;;;5.65;5.15;;;22.80;71.80;;;;;;6214563;28;89218;-60
2023/12/01 10:31:49;;;;;;;5.38;4.88;;;22.80;71.80;;;;;;6232364;28;88276;-60
2023/12/01 10:34:54;;;;;;;5.70;5.20;;;22.80;71.80;;;;;;6233853;28;89035;-60
2023/12/01 10:37:56;;;;;;;5.90;5.25;;;22.80;71.70;;;;;;6242605;28;89075;-60
2023/12/01 10:40:59;;;;;;;7.32;5.43;;;22.90;71.80;;;;;;6218543;28;88891;-60
2023/12/01 10:44:03;;;;;;;5.15;4.75;;;22.90;71.80;;;;;;6229730;28;89140;-60
2023/12/01 10:47:08;;;;;;;5.10;4.70;;;22.80;71.70;;;;;;6209302;28;89107;-60
2023/12/01 10:50:12;;;;;;;5.15;4.68;;;22.80;71.70;;;;;;6228926;28;89069;-60
2023/12/01 10:53:16;;;;;;;5.30;4.80;;;22.80;71.70;;;;;;6236254;28;88792;-60
2023/12/01 10:56:21;;;;;;;5.30;4.80;;;22.80;71.70;;;;;;6244030;28;89039;-60
2023/12/01 10:59:27;;;;;;;5.22;4.72;;;22.90;71.80;;;;;;6223361;28;89039;-60
2023/12/01 11:02:37;;;;;;;5.50;5.00;;;22.80;71.60;;;;;;6224949;28;88333;-60
2023/12/01 11:05:41;;;;;;;5.35;4.85;;;22.90;71.70;;;;;;6237853;28;89060;-60
2023/12/01 11:08:52;;;;;;;5.70;5.20;;;22.90;71.70;;;;;;6223318;28;89197;-60
2023/12/01 11:12:02;;;;;;;6.30;5.15;;;22.90;71.70;;;;;;6215590;28;90267;-60
2023/12/01 11:15:11;;;;;;;6.38;5.20;;;22.90;71.60;;;;;;6229194;28;89013;-59
2023/12/01 11:18:15;;;;;;;5.72;4.97;;;22.90;71.60;;;;;;6219614;28;89136;-60
2023/12/01 11:21:17;;;;;;;5.18;4.68;;;22.90;71.60;;;;;;6207834;28;89624;-60
2023/12/01 11:24:26;;;;;;;5.20;4.75;;;22.80;71.60;;;;;;6218143;28;89633;-59
2023/12/01 11:27:31;;;;;;;4.90;4.50;;;22.80;71.60;;;;;;6222576;28;88994;-60
2023/12/01 11:31:01;;;;;;;5.20;4.70;;;22.90;71.60;;;;;;6237661;28;89390;-60
2023/12/01 11:34:08;;;;;;;5.80;5.20;;;22.90;71.60;;;;;;6208974;28;88708;-60
2023/12/01 11:37:10;;;;;;;5.50;5.00;;;22.90;70.80;;;;;;6220118;28;89052;-60
2023/12/01 11:40:22;;;;;;;5.20;4.63;;;22.90;70.80;;;;;;6225394;28;89086;-60
2023/12/01 11:43:24;;;;;;;5.20;4.70;;;22.90;71.00;;;;;;6214847;28;90040;-60
2023/12/01 11:46:28;;;;;;;5.00;4.50;;;22.90;71.10;;;;;;6215200;28;89055;-60
2023/12/01 11:49:32;;;;;;;4.95;4.55;;;22.90;71.10;;;;;;6244302;28;89146;-60
2023/12/01 11:52:35;;;;;;;5.05;4.53;;;22.90;71.10;;;;;;6216780;28;89096;-60
2023/12/01 11:55:37;;;;;;;6.07;5.18;;;22.90;71.20;;;;;;6209682;28;89122;-59
2023/12/01 11:58:39;;;;;;;5.68;5.10;;;22.90;71.30;;;;;;6219262;28;89065;-59
2023/12/01 12:01:41;;;;;;;6.13;4.50;;;22.90;71.50;;;;;;6223425;28;87928;-60
2023/12/01 12:04:47;;;;;;;5.78;4.70;;;22.90;71.80;;;;;;6230217;28;87472;-60
2023/12/01 12:07:49;;;;;;;7.07;4.72;;;22.90;72.10;;;;;;6218351;28;89124;-60
2023/12/01 12:10:51;;;;;;;9.23;4.55;;;22.90;72.30;;;;;;6224378;28;89233;-60
2023/12/01 12:13:58;;;;;;;6.28;4.90;;;22.90;72.60;;;;;;6210124;28;89900;-60
2023/12/01 12:17:00;;;;;;;10.57;5.43;;;22.90;72.80;;;;;;6225196;28;89107;-60
2023/12/01 12:20:05;;;;;;;7.10;4.70;;;22.90;73.10;;;;;;6219069;28;89337;-60
2023/12/01 12:23:07;;;;;;;7.18;4.88;;;22.90;73.30;;;;;;6228825;28;89098;-60
2023/12/01 12:26:17;;;;;;;5.80;4.78;;;22.90;73.40;;;;;;6213880;28;89127;-60
2023/12/01 12:29:20;;;;;;;7.65;4.60;;;22.90;73.50;;;;;;6210001;28;88954;-60
2023/12/01 12:32:23;;;;;;;8.73;4.82;;;22.90;73.50;;;;;;6212881;28;89051;-60
2023/12/01 12:35:28;;;;;;;8.23;5.07;;;22.90;73.60;;;;;;6207394;28;88924;-60
2023/12/01 12:38:31;;;;;;;8.88;5.22;;;22.90;73.60;;;;;;6220439;28;89134;-59
2023/12/01 12:41:35;;;;;;;6.43;4.57;;;22.90;73.60;;;;;;6241892;28;87975;-60
2023/12/01 12:44:38;;;;;;;8.95;4.95;;;22.90;73.60;;;;;;6205391;28;90422;-60
2023/12/01 12:47:40;;;;;;;5.30;4.40;;;22.90;73.60;;;;;;6227913;28;89058;-60
2023/12/01 12:50:46;;;;;;;4.88;4.00;;;22.90;73.60;;;;;;6210086;28;89442;-60
2023/12/01 12:53:48;;;;;;;5.90;4.20;;;22.90;73.50;;;;;;6229812;28;89554;-60
2023/12/01 12:56:50;;;;;;;7.28;4.05;;;22.90;73.60;;;;;;6215469;28;89579;-59
2023/12/01 12:59:54;;;;;;;5.63;4.30;;;23.00;73.50;;;;;;6235577;28;89085;-60
2023/12/01 13:02:56;;;;;;;8.95;5.00;;;22.90;73.50;;;;;;6215168;28;89093;-60
2023/12/01 13:05:59;;;;;;;7.82;4.45;;;22.90;73.50;;;;;;6205780;28;87205;-60
2023/12/01 13:09:01;;;;;;;6.20;4.45;;;23.00;73.50;;;;;;6215175;28;89105;-60
2023/12/01 13:12:04;;;;;;;5.40;4.20;;;23.00;73.50;;;;;;6214967;28;89042;-60
2023/12/01 13:15:07;;;;;;;7.60;4.82;;;23.00;73.50;;;;;;6211756;28;90252;-60
2023/12/01 13:18:10;;;;;;;5.43;4.22;;;23.00;73.40;;;;;;6211297;28;89669;-60
2023/12/01 13:21:14;;;;;;;5.45;4.10;;;23.00;73.50;;;;;;6220708;28;89465;-60
2023/12/01 13:24:16;;;;;;;4.75;3.90;;;23.00;73.50;;;;;;6219311;28;89034;-60
2023/12/01 13:27:18;;;;;;;4.25;3.85;;;22.90;73.30;;;;;;6232843;28;89297;-60
2023/12/01 13:30:20;;;;;;;5.03;4.10;;;22.90;73.30;;;;;;6214170;28;88878;-60
2023/12/01 13:33:22;;;;;;;4.47;4.00;;;23.00;73.40;;;;;;6209748;28;89196;-60
2023/12/01 13:36:26;;;;;;;4.50;3.67;;;23.00;73.40;;;;;;6210133;28;88332;-59
2023/12/01 13:39:28;;;;;;;8.50;4.95;;;22.90;73.30;;;;;;6222705;28;89093;-60
2023/12/01 13:42:30;;;;;;;5.32;3.78;;;23.00;73.40;;;;;;6210562;28;87951;-59
2023/12/01 13:45:32;;;;;;;3.80;3.50;;;23.00;73.40;;;;;;6210354;28;91213;-60
2023/12/01 13:48:35;;;;;;;4.20;3.80;;;23.00;73.30;;;;;;6212094;28;88848;-60
2023/12/01 13:51:40;;;;;;;4.10;3.67;;;23.00;73.40;;;;;;6217049;28;89058;-60
2023/12/01 13:54:42;;;;;;;4.63;3.30;;;22.90;73.30;;;;;;6227207;28;89428;-59
2023/12/01 13:57:44;;;;;;;3.90;3.50;;;22.90;73.30;;;;;;6210785;28;88999;-60
2023/12/01 14:00:48;;;;;;;7.68;4.63;;;23.00;73.30;;;;;;6208815;28;89027;-60
2023/12/01 14:03:50;;;;;;;5.47;4.07;;;22.90;73.30;;;;;;6220464;28;89104;-59
2023/12/01 14:06:53;;;;;;;4.35;3.88;;;23.00;73.30;;;;;;6221392;28;88235;-60
2023/12/01 14:09:55;;;;;;;5.40;4.00;;;23.00;73.30;;;;;;6224821;28;89133;-60
2023/12/01 14:12:59;;;;;;;5.88;4.22;;;23.00;73.30;;;;;;6224889;28;89081;-59
2023/12/01 14:16:02;;;;;;;4.03;3.60;;;22.90;73.30;;;;;;6221541;28;90030;-60
2023/12/01 14:19:04;;;;;;;4.03;3.63;;;23.00;73.30;;;;;;6229142;28;88027;-59
2023/12/01 14:22:07;;;;;;;5.22;3.72;;;23.00;73.30;;;;;;6220563;28;89172;-60
2023/12/01 14:25:09;;;;;;;4.97;3.80;;;22.90;73.20;;;;;;6226571;28;89189;-59
2023/12/01 14:28:11;;;;;;;4.03;3.60;;;23.00;73.20;;;;;;6209222;28;89103;-60
2023/12/01 14:31:13;;;;;;;4.45;3.67;;;23.00;73.20;;;;;;6223138;28;89449;-60
2023/12/01 14:34:16;;;;;;;5.88;4.25;;;23.00;73.20;;;;;;6226556;28;88730;-59
2023/12/01 14:37:19;;;;;;;4.85;3.90;;;22.90;73.20;;;;;;6218703;28;88339;-60
2023/12/01 14:40:21;;;;;;;4.38;3.40;;;23.00;73.20;;;;;;6220202;28;89051;-60
2023/12/01 14:43:23;;;;;;;4.40;3.67;;;22.90;73.10;;;;;;6216055;28;89097;-60
2023/12/01 14:46:25;;;;;;;4.63;3.80;;;23.00;73.20;;;;;;6215083;28;89924;-60
2023/12/01 14:49:27;;;;;;;4.18;3.40;;;22.90;73.10;;;;;;6211342;28;89172;-60
2023/12/01 14:52:31;;;;;;;5.72;4.07;;;22.90;73.10;;;;;;6208617;28;89078;-60
2023/12/01 14:55:33;;;;;;;3.55;3.25;;;23.00;73.20;;;;;;6219539;28;89086;-60
2023/12/01 14:58:37;;;;;;;3.55;3.25;;;22.90;73.10;;;;;;6226839;28;88272;-60
2023/12/01 15:01:39;;;;;;;4.47;3.60;;;22.90;73.00;;;;;;6223617;28;89036;-59
2023/12/01 15:04:41;;;;;;;3.92;3.20;;;23.00;73.20;;;;;;6208336;28;89110;-60
2023/12/01 15:07:45;;;;;;;4.20;3.40;;;23.00;73.10;;;;;;6223964;28;88674;-60
2023/12/01 15:10:47;;;;;;;3.70;3.40;;;23.00;73.10;;;;;;6245880;28;89093;-60
2023/12/01 15:13:49;;;;;;;3.40;3.10;;;22.90;73.00;;;;;;6223566;28;88043;-60
2023/12/01 15:16:51;;;;;;;3.92;3.50;;;22.90;73.00;;;;;;6250959;28;90028;-60
2023/12/01 15:19:53;;;;;;;5.05;3.63;;;23.00;73.10;;;;;;6226995;28;89085;-60
2023/12/01 15:22:56;;;;;;;4.80;3.72;;;23.00;73.10;;;;;;6217478;28;87976;-60
2023/12/01 15:26:00;;;;;;;3.53;3.22;;;23.00;73.00;;;;;;6232178;28;89224;-60
2023/12/01 15:29:03;;;;;;;4.05;3.22;;;23.00;73.00;;;;;;6214988;28;89603;-60
2023/12/01 15:32:08;;;;;;;4.22;3.67;;;23.00;72.90;;;;;;6234529;28;88029;-60
2023/12/01 15:35:10;;;;;;;3.70;3.30;;;23.00;72.80;;;;;;6242439;28;89072;-60
2023/12/01 15:38:13;;;;;;;3.70;3.30;;;23.00;72.90;;;;;;6233397;28;88379;-60
2023/12/01 15:41:15;;;;;;;3.92;3.30;;;23.00;72.90;;;;;;6243608;28;89056;-60
2023/12/01 15:44:17;;;;;;;3.63;3.30;;;23.00;72.80;;;;;;6222022;28;88916;-60
2023/12/01 15:47:20;;;;;;;4.05;3.55;;;23.00;72.80;;;;;;6249408;28;90079;-60
2023/12/01 15:50:22;;;;;;;3.47;3.13;;;23.00;72.80;;;;;;6221437;28;89312;-60